| time (UTC) | temp C | wind direction | speed KPH | gust KPH | rain 1hr cm | rain 24hr cm | rain mn cm | humidity % | barometer mb |
| 20260509073131 | 18 | 330 | 11.3 | 22.5 | 0.00 | 1.78 | 1.78 | 89 | 1019.4 |
| 20260509072628 | 18 | 44 | 6.4 | 12.9 | 0.18 | 1.78 | 1.78 | 89 | 1019.4 |
| 20260509072125 | 18 | 356 | 9.7 | 11.3 | 0.00 | 1.75 | 1.75 | 89 | 1019.0 |
| 20260509071622 | 18 | 40 | 6.4 | 11.3 | 0.00 | 1.75 | 1.75 | 88 | 1019.1 |
| 20260509071119 | 18 | 16 | 3.2 | 6.4 | 0.00 | 1.75 | 1.75 | 87 | 1019.5 |
| 20260509070616 | 18 | 53 | 3.2 | 12.9 | 0.00 | 1.75 | 1.75 | 86 | 1019.4 |
| 20260509070112 | 18 | 333 | 4.8 | 6.4 | 0.00 | 1.75 | 1.75 | 85 | 1019.4 |
| 20260509065608 | 18 | 62 | 4.8 | 17.7 | 0.00 | 1.75 | 1.75 | 85 | 1019.4 |
| 20260509065104 | 18 | 310 | 8.0 | 12.9 | 0.00 | 1.75 | 1.75 | 86 | 1019.7 |
| 20260509064602 | 18 | 56 | 3.2 | 4.8 | 0.00 | 1.75 | 1.75 | 87 | 1019.5 |
| 20260509064100 | 18 | 292 | 6.4 | 11.3 | 0.00 | 1.75 | 1.75 | 88 | 1019.7 |
| 20260509063555 | 18 | 71 | 0.0 | 9.7 | 0.00 | 1.75 | 1.75 | 88 | 1019.4 |
| 20260509063053 | 18 | 292 | 8.0 | 12.9 | 0.00 | 1.75 | 1.75 | 88 | 1019.5 |
| 20260509062550 | 18 | 351 | 3.2 | 4.8 | 0.00 | 1.75 | 1.75 | 88 | 1019.7 |
| 20260509062047 | 18 | 279 | 3.2 | 6.4 | 0.00 | 1.75 | 1.75 | 88 | 1019.7 |
| 20260509061544 | 18 | 91 | 0.0 | 11.3 | 0.00 | 1.75 | 1.75 | 87 | 1019.6 |
| 20260509061041 | 18 | 2 | 6.4 | 12.9 | 0.00 | 1.75 | 1.75 | 87 | 1019.4 |
| 20260509060539 | 18 | 353 | 4.8 | 12.9 | 0.00 | 1.75 | 1.75 | 87 | 1019.5 |
| 20260509060034 | 18 | 69 | 0.0 | 4.8 | 0.00 | 1.75 | 1.75 | 87 | 1019.6 |
| 20260509055530 | 18 | 324 | 3.2 | 3.2 | 0.00 | 1.75 | 1.75 | 87 | 1019.6 |
| 20260509055026 | 18 | 347 | 3.2 | 4.8 | 0.00 | 1.75 | 1.75 | 87 | 1019.6 |
| 20260509054523 | 18 | 40 | 3.2 | 4.8 | 0.00 | 1.75 | 1.75 | 87 | 1019.7 |
| 20260509054021 | 18 | 91 | 0.0 | 6.4 | 0.00 | 1.75 | 1.75 | 87 | 1020.1 |
| 20260509053519 | 18 | 85 | 0.0 | 3.2 | 0.13 | 1.75 | 1.75 | 87 | 1020.1 |
| 20260509053016 | 18 | 79 | 1.6 | 3.2 | 0.13 | 1.75 | 1.75 | 88 | 1019.8 |
| 20260509052514 | 18 | 26 | 3.2 | 6.4 | 0.30 | 1.73 | 1.73 | 87 | 1019.9 |
| 20260509052012 | 18 | 297 | 8.0 | 11.3 | 0.30 | 1.73 | 1.73 | 87 | 1020.2 |
| 20260509051509 | 18 | 333 | 1.6 | 4.8 | 0.00 | 1.68 | 1.68 | 88 | 1020.0 |
| 20260509051006 | 18 | 342 | 4.8 | 12.9 | 0.00 | 1.68 | 1.68 | 87 | 1020.1 |
| 20260509050502 | 18 | 106 | 0.0 | 6.4 | 0.00 | 1.68 | 1.68 | 87 | 1020.2 |
| 20260509045959 | 18 | 324 | 6.4 | 11.3 | 0.00 | 1.68 | 1.68 | 88 | 1020.1 |
| 20260509045456 | 18 | 78 | 3.2 | 6.4 | 0.00 | 1.68 | 1.68 | 89 | 1020.3 |
| 20260509044953 | 17 | 74 | 0.0 | 6.4 | 0.18 | 1.68 | 1.68 | 89 | 1020.3 |
| 20260509044451 | 18 | 5 | 6.4 | 16.1 | 0.18 | 1.68 | 1.68 | 90 | 1020.5 |
| 20260509043948 | 18 | 29 | 3.2 | 9.7 | 0.13 | 1.65 | 1.65 | 91 | 1020.1 |
| 20260509043443 | 18 | 102 | 4.8 | 9.7 | 0.13 | 1.65 | 1.65 | 91 | 1020.2 |
| 20260509042939 | 18 | 20 | 1.6 | 9.7 | 0.18 | 1.63 | 1.63 | 92 | 1020.5 |
| 20260509042437 | 18 | 12 | 1.6 | 4.8 | 0.30 | 1.63 | 1.63 | 92 | 1020.6 |
| 20260509041933 | 18 | 19 | 1.6 | 6.4 | 0.30 | 1.60 | 1.60 | 91 | 1020.4 |
| 20260509041430 | 18 | 286 | 4.8 | 11.3 | 0.30 | 1.57 | 1.57 | 91 | 1020.5 |
| 20260509040928 | 18 | 59 | 1.6 | 14.5 | 0.43 | 1.55 | 1.55 | 92 | 1020.5 |
| 20260509040426 | 18 | 93 | 6.4 | 11.3 | 0.30 | 1.52 | 1.52 | 92 | 1020.4 |
| 20260509035922 | 18 | 349 | 3.2 | 4.8 | 0.00 | 1.47 | 1.47 | 92 | 1020.2 |
| 20260509035419 | 18 | 52 | 1.6 | 9.7 | 0.00 | 1.47 | 1.47 | 92 | 1020.1 |
| 20260509034915 | 18 | 53 | 3.2 | 6.4 | 0.18 | 1.47 | 1.47 | 92 | 1020.5 |
| 20260509034414 | 18 | 351 | 6.4 | 12.9 | 0.18 | 1.47 | 1.47 | 92 | 1020.5 |
| 20260509033910 | 18 | 345 | 6.4 | 14.5 | 0.00 | 1.45 | 1.45 | 93 | 1020.9 |
| 20260509033407 | 18 | 352 | 4.8 | 14.5 | 0.18 | 1.45 | 1.45 | 92 | 1021.0 |
| 20260509032904 | 18 | 82 | 0.0 | 4.8 | 0.18 | 1.45 | 1.45 | 93 | 1021.0 |
| 20260509032401 | 18 | 219 | 3.2 | 4.8 | 0.13 | 1.42 | 1.42 | 93 | 1020.9 |
| 20260509031859 | 18 | 303 | 4.8 | 11.3 | 0.13 | 1.42 | 1.42 | 93 | 1021.0 |
| 20260509031356 | 18 | 316 | 6.4 | 12.9 | 0.00 | 1.40 | 1.40 | 93 | 1021.0 |
| 20260509030853 | 18 | 345 | 3.2 | 6.4 | 0.00 | 1.40 | 1.40 | 93 | 1020.9 |
| 20260509030351 | 18 | 268 | 3.2 | 4.8 | 0.00 | 1.40 | 1.40 | 93 | 1021.0 |
| 20260509025843 | 18 | 90 | 1.6 | 3.2 | 0.00 | 1.40 | 1.40 | 94 | 1021.1 |
| 20260509025338 | 17 | 65 | 3.2 | 9.7 | 0.00 | 1.40 | 1.40 | 93 | 1021.2 |
| 20260509024833 | 17 | 282 | 4.8 | 9.7 | 0.18 | 1.40 | 1.40 | 93 | 1021.2 |
| 20260509024329 | 17 | 65 | 0.0 | 1.6 | 0.18 | 1.40 | 1.40 | 93 | 1021.3 |
| 20260509023826 | 17 | 64 | 0.0 | 1.6 | 0.13 | 1.37 | 1.37 | 93 | 1021.1 |
| 20260509023324 | 17 | 332 | 3.2 | 16.1 | 0.30 | 1.37 | 1.37 | 93 | 1021.1 |
| 20260509022820 | 17 | 42 | 1.6 | 4.8 | 0.61 | 1.35 | 1.35 | 93 | 1021.2 |
| 20260509022318 | 17 | 95 | 1.6 | 4.8 | 0.89 | 1.32 | 1.32 | 93 | 1021.2 |
| 20260509021814 | 17 | 51 | 0.0 | 3.2 | 0.97 | 1.24 | 1.24 | 93 | 1021.5 |
| 20260509021312 | 17 | 349 | 3.2 | 4.8 | 0.61 | 1.17 | 1.17 | 93 | 1021.5 |
| 20260509020809 | 17 | 279 | 3.2 | 3.2 | 0.30 | 1.09 | 1.09 | 93 | 1021.2 |
| 20260509020307 | 17 | 304 | 1.6 | 3.2 | 0.30 | 1.07 | 1.07 | 93 | 1021.5 |
| 20260509015804 | 17 | 341 | 3.2 | 3.2 | 0.30 | 1.04 | 1.04 | 93 | 1021.3 |
| 20260509015306 | 17 | 81 | 0.0 | 3.2 | 0.18 | 1.02 | 1.02 | 93 | 1021.2 |
| 20260509014758 | 17 | 67 | 0.0 | 11.3 | 0.13 | 0.99 | 0.99 | 92 | 1021.1 |
| 20260509014255 | 17 | 81 | 0.0 | 3.2 | 0.13 | 0.99 | 0.99 | 92 | 1021.1 |
| 20260509013752 | 17 | 341 | 3.2 | 11.3 | 0.18 | 0.97 | 0.97 | 92 | 1021.1 |
| 20260509013248 | 17 | 74 | 1.6 | 4.8 | 0.30 | 0.97 | 0.97 | 92 | 1021.1 |
| 20260509012745 | 17 | 3 | 4.8 | 6.4 | 0.30 | 0.94 | 0.94 | 92 | 1020.7 |
| 20260509012241 | 17 | 19 | 3.2 | 9.7 | 0.18 | 0.91 | 0.91 | 92 | 1020.8 |
| 20260509011739 | 17 | 290 | 4.8 | 11.3 | 0.13 | 0.89 | 0.89 | 92 | 1020.9 |
| 20260509011236 | 17 | 342 | 3.2 | 12.9 | 0.13 | 0.89 | 0.89 | 92 | 1021.1 |
| 20260509010729 | 17 | 282 | 4.8 | 6.4 | 0.18 | 0.86 | 0.86 | 92 | 1020.8 |
| 20260509010225 | 17 | 331 | 3.2 | 9.7 | 0.36 | 0.86 | 0.86 | 92 | 1020.9 |
| 20260509005722 | 17 | 151 | 3.2 | 6.4 | 0.48 | 0.84 | 0.84 | 92 | 1020.8 |
| 20260509005220 | 17 | 68 | 4.8 | 11.3 | 0.61 | 0.79 | 0.79 | 92 | 1020.4 |
| 20260509004719 | 17 | 347 | 4.8 | 4.8 | 0.61 | 0.76 | 0.76 | 92 | 1020.6 |
| 20260509004217 | 17 | 335 | 6.4 | 9.7 | 0.48 | 0.69 | 0.69 | 92 | 1020.8 |
| 20260509003715 | 17 | 318 | 4.8 | 14.5 | 0.71 | 0.66 | 0.66 | 92 | 1020.7 |
| 20260509003213 | 17 | 264 | 4.8 | 12.9 | 0.66 | 0.58 | 0.58 | 92 | 1020.8 |
| 20260509002709 | 17 | 89 | 0.0 | 6.4 | 0.79 | 0.53 | 0.53 | 92 | 1020.6 |
| 20260509002207 | 17 | 335 | 1.6 | 6.4 | 1.02 | 0.48 | 0.48 | 91 | 1020.7 |
| 20260509001704 | 17 | 271 | 1.6 | 9.7 | 1.02 | 0.38 | 0.38 | 91 | 1020.6 |
| 20260509001200 | 17 | 301 | 3.2 | 4.8 | 1.37 | 0.30 | 0.30 | 91 | 1020.8 |
| 20260509000659 | 17 | 7 | 6.4 | 11.3 | 0.79 | 0.18 | 0.18 | 90 | 1020.7 |
| 20260509000155 | 17 | 298 | 6.4 | 9.7 | 0.00 | 0.05 | 0.05 | 90 | 1020.8 |
| 20260508235652 | 17 | 312 | 3.2 | 9.7 | 0.00 | 0.05 | 0.05 | 90 | 1020.8 |
| 20260508235148 | 17 | 275 | 1.6 | 6.4 | 0.00 | 0.05 | 0.05 | 90 | 1020.6 |
| 20260508234646 | 17 | 254 | 8.0 | 16.1 | 0.00 | 0.05 | 0.05 | 90 | 1020.3 |
| 20260508234142 | 17 | 308 | 1.6 | 9.7 | 0.00 | 0.05 | 0.05 | 89 | 1020.1 |
| 20260508233642 | 17 | 296 | 9.7 | 12.9 | 0.00 | 0.05 | 0.05 | 89 | 1020.1 |
| 20260508233139 | 17 | 316 | 4.8 | 12.9 | 0.00 | 0.05 | 0.05 | 89 | 1019.9 |
| 20260508232636 | 17 | 272 | 4.8 | 12.9 | 0.13 | 0.05 | 0.05 | 88 | 1019.8 |
| 20260508232133 | 17 | 284 | 6.4 | 14.5 | 0.00 | 0.03 | 0.03 | 87 | 1019.8 |
| 20260508231631 | 17 | 159 | 6.4 | 17.7 | 0.00 | 0.03 | 0.03 | 86 | 1019.9 |
| 20260508231127 | 18 | 296 | 14.5 | 20.9 | 0.00 | 0.03 | 0.03 | 84 | 1019.9 |
| 20260508230624 | 18 | 271 | 4.8 | 14.5 | 0.00 | 0.03 | 0.03 | 83 | 1020.0 |
| 20260508230120 | 18 | 340 | 9.7 | 14.5 | 0.00 | 0.03 | 0.03 | 82 | 1019.9 |
| 20260508225619 | 18 | 323 | 14.5 | 16.1 | 0.00 | 0.03 | 0.03 | 82 | 1020.0 |
| 20260508225114 | 18 | 299 | 9.7 | 17.7 | 0.00 | 0.03 | 0.03 | 82 | 1020.1 |
| 20260508224612 | 18 | 279 | 3.2 | 17.7 | 0.00 | 0.03 | 0.03 | 82 | 1019.9 |
| 20260508224110 | 18 | 251 | 8.0 | 20.9 | 0.00 | 0.03 | 0.03 | 82 | 1020.0 |
| 20260508223608 | 18 | 310 | 6.4 | 20.9 | 0.00 | 0.03 | 0.03 | 83 | 1020.1 |
| 20260508223104 | 18 | 335 | 9.7 | 22.5 | 0.00 | 0.03 | 0.03 | 84 | 1019.9 |
| 20260508222601 | 18 | 294 | 3.2 | 17.7 | 0.00 | 0.03 | 0.03 | 85 | 1019.6 |
| 20260508222059 | 18 | 309 | 8.0 | 12.9 | 0.00 | 0.03 | 0.03 | 86 | 1019.7 |
| 20260508221555 | 18 | 26 | 8.0 | 16.1 | 0.00 | 0.03 | 0.03 | 87 | 1019.6 |
| 20260508221050 | 18 | 306 | 11.3 | 16.1 | 0.00 | 0.03 | 0.03 | 89 | 1019.5 |
| 20260508220547 | 18 | 1 | 4.8 | 11.3 | 0.00 | 0.03 | 0.03 | 90 | 1019.5 |
| 20260508220043 | 18 | 349 | 3.2 | 12.9 | 0.00 | 0.03 | 0.03 | 90 | 1019.6 |
| 20260508215541 | 18 | 53 | 4.8 | 16.1 | 0.00 | 0.03 | 0.03 | 91 | 1019.6 |
| 20260508215037 | 18 | 315 | 3.2 | 11.3 | 0.00 | 0.03 | 0.03 | 91 | 1019.3 |
| 20260508214535 | 18 | 343 | 4.8 | 14.5 | 0.00 | 0.03 | 0.03 | 91 | 1019.5 |
| 20260508214031 | 18 | 282 | 8.0 | 16.1 | 0.00 | 0.03 | 0.03 | 91 | 1019.1 |
| 20260508213529 | 18 | 270 | 3.2 | 4.8 | 0.00 | 0.03 | 0.03 | 92 | 1019.0 |
| 20260508213024 | 18 | 21 | 0.0 | 6.4 | 0.00 | 0.03 | 0.03 | 91 | 1019.0 |
| 20260508212521 | 18 | 331 | 6.4 | 12.9 | 0.00 | 0.03 | 0.03 | 92 | 1019.0 |
| 20260508212017 | 18 | 318 | 6.4 | 11.3 | 0.00 | 0.03 | 0.03 | 92 | 1019.2 |
| 20260508211513 | 18 | 2 | 6.4 | 12.9 | 0.00 | 0.03 | 0.03 | 92 | 1018.9 |
| 20260508211010 | 18 | 334 | 14.5 | 20.9 | 0.00 | 0.03 | 0.03 | 92 | 1018.9 |
| 20260508210506 | 19 | 358 | 4.8 | 11.3 | 0.00 | 0.03 | 0.03 | 92 | 1018.7 |
| 20260508210003 | 19 | 287 | 11.3 | 14.5 | 0.00 | 0.03 | 0.03 | 92 | 1018.8 |
| 20260508205500 | 19 | 312 | 8.0 | 12.9 | 0.00 | 0.03 | 0.03 | 92 | 1018.5 |
| 20260508204956 | 20 | 263 | 3.2 | 16.1 | 0.00 | 0.03 | 0.03 | 92 | 1018.6 |
| 20260508204454 | 20 | 303 | 8.0 | 14.5 | 0.00 | 0.03 | 0.03 | 92 | 1018.6 |
| 20260508203949 | 20 | 259 | 3.2 | 4.8 | 0.00 | 0.03 | 0.03 | 92 | 1018.2 |
| 20260508203445 | 20 | 309 | 1.6 | 9.7 | 0.00 | 0.03 | 0.03 | 91 | 1018.2 |
| 20260508202941 | 20 | 48 | 0.0 | 1.6 | 0.00 | 0.03 | 0.03 | 91 | 1018.3 |
| 20260508202438 | 20 | 95 | 0.0 | 0.0 | 0.00 | 0.03 | 0.03 | 91 | 1018.5 |
| 20260508201935 | 20 | 339 | 1.6 | 4.8 | 0.00 | 0.03 | 0.03 | 91 | 1018.1 |
| 20260508201432 | 20 | 39 | 1.6 | 3.2 | 0.00 | 0.03 | 0.03 | 91 | 1018.2 |
| 20260508200929 | 20 | 93 | 0.0 | 3.2 | 0.00 | 0.03 | 0.03 | 91 | 1018.3 |
| 20260508200426 | 20 | 67 | 1.6 | 3.2 | 0.00 | 0.03 | 0.03 | 92 | 1018.4 |
| 20260508195921 | 20 | 345 | 3.2 | 3.2 | 0.00 | 0.03 | 0.03 | 92 | 1018.4 |
| 20260508195418 | 20 | 52 | 0.0 | 3.2 | 0.00 | 0.03 | 0.03 | 92 | 1018.1 |
| 20260508194914 | 20 | 3 | 1.6 | 3.2 | 0.00 | 0.03 | 0.03 | 92 | 1018.3 |
| 20260508194412 | 20 | 64 | 3.2 | 3.2 | 0.00 | 0.03 | 0.03 | 92 | 1018.3 |
| 20260508193908 | 20 | 311 | 4.8 | 6.4 | 0.00 | 0.03 | 0.03 | 92 | 1018.3 |
| 20260508193405 | 20 | 349 | 0.0 | 3.2 | 0.00 | 0.03 | 0.03 | 92 | 1018.3 |
| 20260508192902 | 20 | 347 | 0.0 | 1.6 | 0.00 | 0.03 | 0.03 | 92 | 1018.3 |
| 20260508192358 | 20 | 16 | 0.0 | 4.8 | 0.00 | 0.03 | 0.03 | 92 | 1018.3 |
| 20260508191856 | 20 | 318 | 1.6 | 3.2 | 0.00 | 0.03 | 0.03 | 92 | 1018.1 |
| 20260508191353 | 20 | 73 | 0.0 | 1.6 | 0.00 | 0.03 | 0.03 | 92 | 1018.5 |
| 20260508190850 | 20 | 33 | 4.8 | 6.4 | 0.00 | 0.03 | 0.03 | 92 | 1018.2 |
| 20260508190346 | 20 | 333 | 1.6 | 3.2 | 0.00 | 0.03 | 0.03 | 92 | 1018.2 |
| 20260508185843 | 20 | 7 | 6.4 | 6.4 | 0.00 | 0.03 | 0.03 | 92 | 1018.3 |
| 20260508185340 | 20 | 89 | 0.0 | 6.4 | 0.00 | 0.03 | 0.03 | 92 | 1018.3 |
| 20260508184838 | 20 | 129 | 0.0 | 3.2 | 0.00 | 0.03 | 0.03 | 92 | 1018.2 |
| 20260508184335 | 20 | 271 | 4.8 | 6.4 | 0.00 | 0.03 | 0.03 | 92 | 1018.1 |
| 20260508183831 | 20 | 61 | 3.2 | 11.3 | 0.00 | 0.03 | 0.03 | 92 | 1018.2 |
| 20260508183328 | 20 | 334 | 3.2 | 4.8 | 0.00 | 0.03 | 0.03 | 92 | 1018.3 |
| 20260508182824 | 20 | 338 | 3.2 | 9.7 | 0.00 | 0.03 | 0.03 | 92 | 1018.2 |
| 20260508182321 | 20 | 275 | 1.6 | 3.2 | 0.00 | 0.03 | 0.03 | 93 | 1018.2 |
| 20260508181816 | 20 | 44 | 1.6 | 6.4 | 0.00 | 0.03 | 0.03 | 93 | 1018.3 |
| 20260508181314 | 20 | 61 | 1.6 | 4.8 | 0.00 | 0.03 | 0.03 | 93 | 1018.1 |
| 20260508180810 | 20 | 19 | 1.6 | 3.2 | 0.00 | 0.03 | 0.03 | 93 | 1018.3 |
| 20260508180308 | 20 | 38 | 3.2 | 6.4 | 0.00 | 0.03 | 0.03 | 93 | 1017.9 |
| 20260508175803 | 20 | 19 | 3.2 | 3.2 | 0.00 | 0.03 | 0.03 | 93 | 1018.2 |
| 20260508175300 | 20 | 26 | 1.6 | 6.4 | 0.00 | 0.03 | 0.03 | 93 | 1018.1 |
| 20260508174758 | 20 | 89 | 0.0 | 1.6 | 0.00 | 0.03 | 0.03 | 93 | 1018.3 |
| 20260508174256 | 20 | 77 | 0.0 | 1.6 | 0.00 | 0.03 | 0.03 | 93 | 1018.3 |
| 20260508173752 | 20 | 259 | 4.8 | 6.4 | 0.00 | 0.03 | 0.03 | 93 | 1018.3 |
| 20260508173248 | 20 | 353 | 1.6 | 3.2 | 0.00 | 0.03 | 0.03 | 93 | 1018.3 |
| 20260508172745 | 20 | 0 | 3.2 | 3.2 | 0.00 | 0.03 | 0.03 | 93 | 1018.3 |
| 20260508172242 | 20 | 2 | 1.6 | 9.7 | 0.00 | 0.03 | 0.03 | 93 | 1018.4 |
| 20260508171738 | 20 | 325 | 3.2 | 6.4 | 0.00 | 0.03 | 0.03 | 93 | 1018.4 |
| 20260508171234 | 19 | 90 | 0.0 | 3.2 | 0.00 | 0.03 | 0.03 | 93 | 1018.5 |
| 20260508170731 | 19 | 295 | 3.2 | 6.4 | 0.00 | 0.03 | 0.03 | 93 | 1018.6 |
| 20260508170229 | 19 | 323 | 3.2 | 14.5 | 0.18 | 0.03 | 0.03 | 93 | 1018.6 |
| 20260508165726 | 19 | 239 | 0.0 | 6.4 | 0.18 | 0.03 | 0.03 | 93 | 1018.7 |
| 20260508165223 | 19 | 286 | 6.4 | 6.4 | 0.00 | 0.00 | 0.00 | 93 | 1018.7 |
| 20260508164720 | 19 | 96 | 0.0 | 1.6 | 0.00 | 0.00 | 0.00 | 93 | 1018.7 |
| 20260508164216 | 19 | 86 | 0.0 | 4.8 | 0.00 | 0.00 | 0.00 | 92 | 1018.7 |
| 20260508163714 | 19 | 359 | 0.0 | 0.0 | 0.00 | 0.00 | 0.00 | 92 | 1018.8 |
| 20260508163212 | 19 | 131 | 0.0 | 3.2 | 0.00 | 0.00 | 0.00 | 92 | 1018.8 |
| 20260508162707 | 19 | 295 | 6.4 | 11.3 | 0.00 | 0.00 | 0.00 | 92 | 1018.9 |
| 20260508162204 | 19 | 81 | 0.0 | 6.4 | 0.00 | 0.00 | 0.00 | 92 | 1018.9 |
| 20260508161701 | 20 | 357 | 6.4 | 11.3 | 0.00 | 0.00 | 0.00 | 92 | 1018.8 |
| 20260508161158 | 20 | 64 | 0.0 | 9.7 | 0.00 | 0.00 | 0.00 | 92 | 1018.9 |
| 20260508160657 | 20 | 300 | 3.2 | 9.7 | 0.00 | 0.00 | 0.00 | 92 | 1018.9 |
| 20260508160154 | 20 | 44 | 4.8 | 6.4 | 0.00 | 0.00 | 0.00 | 93 | 1018.7 |
| 20260508155651 | 20 | 349 | 1.6 | 3.2 | 0.00 | 0.00 | 0.00 | 93 | 1018.9 |
| 20260508155148 | 20 | 353 | 6.4 | 9.7 | 0.00 | 0.00 | 0.00 | 93 | 1018.9 |
| 20260508154645 | 20 | 300 | 6.4 | 6.4 | 0.00 | 0.00 | 0.00 | 93 | 1019.1 |
| 20260508154142 | 20 | 279 | 3.2 | 11.3 | 0.00 | 0.00 | 0.00 | 93 | 1019.2 |
| 20260508153638 | 20 | 26 | 3.2 | 6.4 | 0.00 | 0.00 | 0.00 | 93 | 1019.1 |
| 20260508153135 | 20 | 69 | 0.0 | 4.8 | 0.00 | 0.00 | 0.00 | 93 | 1019.0 |
| 20260508152632 | 20 | 297 | 6.4 | 11.3 | 0.00 | 0.00 | 0.00 | 93 | 1019.2 |
| 20260508152127 | 20 | 318 | 4.8 | 12.9 | 0.00 | 0.00 | 0.00 | 93 | 1019.2 |
| 20260508151624 | 20 | 282 | 3.2 | 9.7 | 0.00 | 0.00 | 0.00 | 93 | 1019.1 |
| 20260508151121 | 20 | 314 | 8.0 | 11.3 | 0.00 | 0.00 | 0.00 | 93 | 1019.5 |
| 20260508150618 | 20 | 168 | 0.0 | 9.7 | 0.00 | 0.00 | 0.00 | 92 | 1019.1 |
| 20260508150114 | 20 | 90 | 1.6 | 4.8 | 0.00 | 0.00 | 0.00 | 92 | 1019.4 |
| 20260508145605 | 20 | 348 | 4.8 | 12.9 | 0.00 | 1.50 | 1.50 | 92 | 1019.5 |
| 20260508145102 | 19 | 277 | 4.8 | 12.9 | 0.00 | 1.50 | 1.50 | 92 | 1019.6 |
| 20260508144600 | 19 | 341 | 1.6 | 4.8 | 0.13 | 1.50 | 1.50 | 93 | 1019.6 |
| 20260508144057 | 19 | 357 | 3.2 | 9.7 | 0.00 | 1.47 | 1.47 | 93 | 1019.8 |
| 20260508143554 | 19 | 291 | 6.4 | 11.3 | 0.00 | 1.47 | 1.47 | 93 | 1019.8 |
| 20260508143051 | 20 | 289 | 3.2 | 6.4 | 0.18 | 1.47 | 1.47 | 93 | 1020.0 |
| 20260508142548 | 20 | 282 | 3.2 | 12.9 | 0.13 | 1.45 | 1.45 | 93 | 1020.0 |
| 20260508142044 | 20 | 57 | 1.6 | 3.2 | 0.18 | 1.42 | 1.42 | 93 | 1019.6 |
| 20260508141541 | 19 | 358 | 1.6 | 3.2 | 0.18 | 1.42 | 1.42 | 93 | 1019.7 |
| 20260508141038 | 19 | 116 | 1.6 | 6.4 | 0.00 | 1.40 | 1.40 | 93 | 1019.6 |
| 20260508140536 | 20 | 37 | 1.6 | 6.4 | 0.00 | 1.40 | 1.40 | 93 | 1019.7 |
| 20260508140032 | 20 | 335 | 1.6 | 4.8 | 0.00 | 1.40 | 1.40 | 93 | 1019.7 |
| 20260508135527 | 20 | 233 | 3.2 | 6.4 | 0.00 | 1.40 | 1.40 | 93 | 1019.5 |
| 20260508135024 | 20 | 3 | 3.2 | 6.4 | 0.00 | 1.40 | 1.40 | 93 | 1019.6 |
| 20260508134521 | 20 | 64 | 0.0 | 3.2 | 0.00 | 1.40 | 1.40 | 93 | 1019.6 |
| 20260508134018 | 20 | 228 | 1.6 | 3.2 | 0.00 | 1.40 | 1.40 | 93 | 1019.6 |
| 20260508133515 | 20 | 270 | 0.0 | 1.6 | 0.00 | 1.40 | 1.40 | 93 | 1019.7 |
| 20260508133012 | 20 | 157 | 1.6 | 3.2 | 0.00 | 1.40 | 1.40 | 93 | 1019.7 |
| 20260508132510 | 20 | 254 | 3.2 | 6.4 | 0.00 | 1.40 | 1.40 | 92 | 1019.9 |
| 20260508132006 | 20 | 283 | 6.4 | 9.7 | 0.00 | 1.40 | 1.40 | 92 | 1019.9 |
| 20260508131501 | 20 | 321 | 4.8 | 9.7 | 0.00 | 1.40 | 1.40 | 92 | 1019.7 |
| 20260508130958 | 20 | 299 | 3.2 | 9.7 | 0.00 | 1.40 | 1.40 | 92 | 1019.7 |
| 20260508130456 | 20 | 281 | 9.7 | 14.5 | 0.18 | 1.40 | 1.40 | 92 | 1019.7 |
| 20260508125951 | 20 | 293 | 3.2 | 11.3 | 0.18 | 1.40 | 1.40 | 92 | 1019.7 |
| 20260508125447 | 20 | 330 | 4.8 | 11.3 | 0.00 | 1.37 | 1.37 | 92 | 1020.0 |
| 20260508124945 | 20 | 78 | 0.0 | 1.6 | 0.00 | 1.37 | 1.37 | 92 | 1020.2 |
| 20260508124443 | 20 | 17 | 3.2 | 4.8 | 0.00 | 1.37 | 1.37 | 92 | 1019.9 |
| 20260508123940 | 20 | 246 | 6.4 | 6.4 | 0.00 | 1.37 | 1.37 | 92 | 1020.0 |
| 20260508123439 | 20 | 297 | 1.6 | 11.3 | 0.13 | 1.37 | 1.37 | 92 | 1019.8 |
| 20260508122935 | 20 | 186 | 4.8 | 9.7 | 0.13 | 1.37 | 1.37 | 92 | 1019.8 |
| 20260508122432 | 20 | 290 | 4.8 | 9.7 | 0.00 | 1.35 | 1.35 | 92 | 1019.8 |
| 20260508121929 | 20 | 13 | 0.0 | 0.0 | 0.00 | 1.35 | 1.35 | 92 | 1019.7 |
| 20260508121427 | 20 | 10 | 1.6 | 4.8 | 0.00 | 1.35 | 1.35 | 92 | 1019.5 |
| 20260508120925 | 20 | 314 | 3.2 | 3.2 | 0.00 | 1.35 | 1.35 | 92 | 1019.4 |
| 20260508120422 | 20 | 312 | 4.8 | 6.4 | 0.00 | 1.35 | 1.35 | 92 | 1019.3 |
| 20260508115919 | 20 | 141 | 0.0 | 1.6 | 0.00 | 1.35 | 1.35 | 92 | 1019.1 |
| 20260508115418 | 20 | 27 | 6.4 | 9.7 | 0.00 | 1.35 | 1.35 | 92 | 1018.9 |
| 20260508114914 | 20 | 332 | 6.4 | 14.5 | 0.00 | 1.35 | 1.35 | 92 | 1018.8 |
| 20260508114410 | 20 | 309 | 6.4 | 14.5 | 0.00 | 1.35 | 1.35 | 92 | 1018.9 |
| 20260508113907 | 20 | 1 | 1.6 | 12.9 | 0.00 | 1.35 | 1.35 | 92 | 1018.8 |
| 20260508113405 | 20 | 283 | 4.8 | 6.4 | 0.00 | 1.35 | 1.35 | 92 | 1018.8 |
| 20260508112902 | 20 | 223 | 6.4 | 11.3 | 0.00 | 1.35 | 1.35 | 92 | 1019.0 |
| 20260508112359 | 20 | 352 | 4.8 | 14.5 | 0.18 | 1.35 | 1.35 | 92 | 1018.8 |
| 20260508111855 | 20 | 329 | 4.8 | 6.4 | 0.48 | 1.35 | 1.35 | 92 | 1018.9 |
| 20260508111352 | 20 | 302 | 12.9 | 16.1 | 0.30 | 1.32 | 1.32 | 92 | 1018.5 |
| 20260508110849 | 21 | 345 | 8.0 | 16.1 | 0.18 | 1.30 | 1.30 | 91 | 1018.7 |
| 20260508110347 | 21 | 269 | 6.4 | 11.3 | 0.00 | 1.27 | 1.27 | 91 | 1018.7 |
| 20260508105846 | 21 | 142 | 1.6 | 3.2 | 0.00 | 1.27 | 1.27 | 91 | 1018.8 |
| 20260508105343 | 21 | 273 | 4.8 | 11.3 | 0.00 | 1.27 | 1.27 | 91 | 1018.5 |
| 20260508104840 | 21 | 65 | 0.0 | 3.2 | 0.00 | 1.27 | 1.27 | 91 | 1018.5 |
| 20260508104336 | 21 | 35 | 1.6 | 6.4 | 0.00 | 1.27 | 1.27 | 91 | 1018.2 |
| 20260508103834 | 21 | 298 | 6.4 | 9.7 | 0.00 | 1.27 | 1.27 | 91 | 1018.2 |
| 20260508103331 | 21 | 345 | 3.2 | 4.8 | 0.13 | 1.27 | 1.27 | 91 | 1018.3 |
| 20260508102828 | 21 | 359 | 3.2 | 4.8 | 0.13 | 1.27 | 1.27 | 91 | 1018.1 |
| 20260508102326 | 21 | 351 | 6.4 | 11.3 | 0.00 | 1.24 | 1.24 | 91 | 1017.9 |
| 20260508101823 | 21 | 314 | 3.2 | 6.4 | 0.00 | 1.24 | 1.24 | 91 | 1018.2 |
| 20260508101321 | 21 | 308 | 3.2 | 11.3 | 0.00 | 1.24 | 1.24 | 91 | 1017.8 |
| 20260508100819 | 21 | 291 | 3.2 | 12.9 | 0.18 | 1.24 | 1.24 | 91 | 1017.8 |
| 20260508100317 | 21 | 279 | 9.7 | 11.3 | 0.30 | 1.24 | 1.24 | 91 | 1017.9 |
| 20260508095812 | 21 | 62 | 0.0 | 4.8 | 0.30 | 1.22 | 1.22 | 91 | 1017.9 |
| 20260508095310 | 21 | 234 | 0.0 | 3.2 | 0.18 | 1.19 | 1.19 | 91 | 1018.0 |
| 20260508094806 | 21 | 104 | 0.0 | 1.6 | 0.13 | 1.17 | 1.17 | 91 | 1018.0 |
| 20260508094304 | 21 | 95 | 0.0 | 4.8 | 0.13 | 1.17 | 1.17 | 90 | 1018.0 |
| 20260508093801 | 21 | 64 | 0.0 | 3.2 | 0.00 | 1.14 | 1.14 | 90 | 1017.7 |
| 20260508093258 | 21 | 136 | 1.6 | 3.2 | 0.00 | 1.14 | 1.14 | 90 | 1017.6 |
| 20260508092754 | 21 | 59 | 1.6 | 11.3 | 0.00 | 1.14 | 1.14 | 90 | 1017.6 |
| 20260508092253 | 21 | 356 | 4.8 | 6.4 | 0.00 | 1.14 | 1.14 | 90 | 1017.3 |
| 20260508091751 | 21 | 25 | 4.8 | 14.5 | 0.18 | 1.14 | 1.14 | 90 | 1017.1 |
| 20260508091247 | 21 | 9 | 3.2 | 4.8 | 0.00 | 1.12 | 1.12 | 91 | 1016.9 |
| 20260508090745 | 21 | 169 | 0.0 | 4.8 | 0.13 | 1.12 | 1.12 | 91 | 1017.0 |
| 20260508090243 | 21 | 11 | 6.4 | 9.7 | 0.13 | 1.12 | 1.12 | 91 | 1016.9 |
| 20260508085738 | 21 | 21 | 3.2 | 4.8 | 0.18 | 1.09 | 1.09 | 91 | 1016.8 |
| 20260508085236 | 21 | 68 | 1.6 | 11.3 | 0.30 | 1.07 | 1.07 | 91 | 1016.6 |
| 20260508084731 | 21 | 330 | 1.6 | 14.5 | 0.13 | 1.04 | 1.04 | 91 | 1016.7 |
| 20260508084229 | 22 | 44 | 3.2 | 4.8 | 0.18 | 1.02 | 1.02 | 92 | 1016.5 |
| 20260508083727 | 22 | 343 | 1.6 | 3.2 | 0.00 | 0.99 | 0.99 | 92 | 1016.5 |
| 20260508083225 | 22 | 274 | 9.7 | 11.3 | 0.00 | 0.99 | 0.99 | 92 | 1016.4 |
| 20260508082719 | 22 | 307 | 11.3 | 20.9 | 0.13 | 0.99 | 0.99 | 92 | 1016.5 |
| 20260508082217 | 22 | 304 | 4.8 | 9.7 | 0.61 | 0.99 | 0.99 | 92 | 1016.3 |
| 20260508081714 | 22 | 317 | 8.0 | 16.1 | 0.61 | 0.97 | 0.97 | 92 | 1016.1 |
| 20260508081210 | 22 | 43 | 6.4 | 9.7 | 0.13 | 0.89 | 0.89 | 92 | 1016.4 |
| 20260508080708 | 22 | 282 | 9.7 | 11.3 | 0.18 | 0.86 | 0.86 | 91 | 1016.3 |
| 20260508080206 | 22 | 321 | 6.4 | 9.7 | 0.18 | 0.86 | 0.86 | 91 | 1016.5 |
| 20260508075702 | 22 | 95 | 0.0 | 1.6 | 0.00 | 0.84 | 0.84 | 92 | 1016.3 |
| 20260508075159 | 22 | 286 | 4.8 | 9.7 | 0.13 | 0.84 | 0.84 | 91 | 1016.2 |
| 20260508074657 | 22 | 356 | 3.2 | 9.7 | 0.13 | 0.84 | 0.84 | 91 | 1016.3 |
| 20260508074154 | 22 | 289 | 3.2 | 6.4 | 0.18 | 0.81 | 0.81 | 91 | 1016.3 |
| 20260508073650 | 22 | 12 | 1.6 | 4.8 | 0.66 | 0.81 | 0.81 | 91 | 1016.3 |